Clear Lake, IA (50428)

9:48 PM CDT on October 24, 2014 (GMT -0500)
South of Oak Hills Golf C. | Change Station
CLOSE
Current Station
Personal Weather Station
Location: Clear Lake, IA
Elevation: 1263 ft
Nearby Weather Stations

Elev 1263 ft 43.11 °N, 93.38 °W | Updated 2 seconds ago

Clear
Clear
57.7 °F
Feels Like 57.7 °F
N
3.0
Wind Variable Wind from WNW
Gusts 4.0 mph

Today
High -- | Low -- °F
--% Chance of Precip.
Yesterday
High -- | Low -- °F
Precip. -- in
7:38 AM 6:16 PM
New Moon, 2% visible
Pressure 29.93 in
Visibility 6.0 miles
Clouds Clear
Dew Point 54 °F
Humidity 86%
Rainfall 0.00 in
Snow Depth Not available.
UV 0 out of 12
Pollen 1.70 out of 12
Air Quality Not available.
Flu Activity Sporadic
METAR KMCW 250153Z AUTO 25003KT 6SM BR CLR 10/10 A2993 RMK AO2 SLP134 T01000100

More Conditions Fewer Conditions

Pressure 29.93 in
Visibility 6.0 miles
Clouds Clear
Dew Point 54 °F
Humidity 86%
Rainfall 0.00 in
Snow Depth Not available.
UV 0 out of 12
Pollen 1.70 out of 12
Air Quality Not available.
Flu Activity Sporadic
METAR KMCW 250153Z AUTO 25003KT 6SM BR CLR 10/10 A2993 RMK AO2 SLP134 T01000100

More Conditions Fewer Conditions

10-Day Weather Forecast

Almanac

Astronomy

Oct. 24, 2014 Rise Set
Actual Time 7:38 AM CDT 6:16 PM CDT
Civil Twilight 7:09 AM CDT 6:45 PM CDT
Nautical Twilight 6:35 AM CDT 7:18 PM CDT
Astronomical Twilight 6:02 AM CDT 7:51 PM CDT
Moon 8:18 AM CDT (10/24) 6:55 PM CDT (10/24)
Length of Visible Light 11h 36m
Length of Day
10h 38m
Tomorrow will be 2m 44s shorter.
New Moon, 2% of the Moon is Illuminated
Today
New Moon
Oct 30
First Quarter
Nov 6
Full
Nov 14
Last Quarter
Nov 22
New

Today's Extremes

State Highs State Lows

Community

WunderPhotos

Upload Photos

1,764,760 photos uploaded!

Nearby

Snow Depth

Station Depth Elevation
No new snow has been reported.

Earthquake Activity

City Distance Mag. Time & Date
No recent earthquake activity has been reported nearby.
Minimum magnitude displayed is 2.5.

Coastal Water Temperatures

Place Temperature
No Stations Reporting

Nearby Weather Stations